Latest Coastal Weather Observations for Edithburgh

IDS60701

Issued at 6:11 am CST Wednesday 31 August 2016 (issued every 10 minutes, with the page automatically refreshed every 10 minutes)

About coastal observations | Map of coastal stations | Coastal observations for SA | Marine services | Other Formats
Station Details ID: 022046 Name: EDITHBURGH Lat: -35.11 Lon: 137.74 Height: 6.0 m
Data from the previous 72 hours. | See also: Recent months at Edithburgh
Date/Time
CST
Temp
°C
Wind Pressure Rain since
9am
mm
Weather Cloud Vis
km
Sea
Height
m
Swell
Dir  Spd
kts
Gust
kts
hPa Trend Height
m
Period
s
Dir
31/06:00am 9.4 NW 6 7 1015.7 - 0.6 Recent precip. - - - - - -
31/05:30am 9.1 NW 6 7 1015.2 - 0.6 - - - - - - -
31/05:00am 9.9 WNW 6 7 1015.0 - 0.4 - - - - - - -
31/04:30am 8.9 NW 5 6 1014.7 - 0.4 - - - - - - -
31/04:00am 10.1 NW 4 5 1014.5 - 0.4 - - - - - - -
31/03:30am 11.0 WNW 6 8 1014.3 - 0.4 - - - - - - -
31/03:00am 11.5 WNW 7 9 1014.3 - 0.4 - - - - - - -
31/02:30am 12.2 WNW 7 10 1014.1 - 0.4 - - - - - - -
31/02:00am 11.7 WNW 7 8 1014.0 - 0.4 - - - - - - -
31/01:30am 12.1 WNW 7 10 1014.0 - 0.4 - - - - - - -
31/01:00am 11.8 NW 7 9 1014.0 - 0.4 - - - - - - -
31/12:30am 11.6 NW 6 8 1013.7 - 0.4 - - - - - - -
31/12:00am 9.3 NNW 6 7 1013.7 - 0.2 - - - - - - -
 
Date/Time
CST
Temp
°C
Wind Pressure Rain since
9am
mm
Weather Cloud Vis
km
Sea
Height
m
Swell
Dir  Spd
kts
Gust
kts
hPa Trend Height
m
Period
s
Dir
30/11:30pm 10.0 NNW 6 7 1013.6 - 0.2 - - - - - - -
30/11:00pm 9.3 NW 6 7 1013.5 - 0.2 - - - - - - -
30/10:30pm 9.4 NW 6 6 1013.5 - 0.2 - - - - - - -
30/10:00pm 10.8 NW 6 7 1013.4 - 0.2 - - - - - - -
30/09:30pm 11.1 NW 6 7 1013.1 - 0.2 - - - - - - -
30/09:00pm 12.4 WNW 6 8 1013.0 - 0.2 - - - - - - -
30/08:30pm 12.3 NW 7 8 1012.9 - 0.2 - - - - - - -
30/08:00pm 12.7 NW 7 9 1012.5 - 0.2 - - - - - - -
30/07:30pm 13.3 NW 7 8 1012.1 - 0.2 - - - - - - -
30/07:00pm 14.8 NW 8 9 1011.7 - 0.2 - - - - - - -
30/06:30pm 15.6 NW 8 11 1011.3 - 0.2 - - - - - - -
30/06:00pm 16.3 NW 10 14 1010.8 - 0.2 - - - - - - -
30/05:30pm 16.8 NW 7 9 1009.9 - 0.2 - - - - - - -
30/05:00pm 17.1 NW 8 11 1009.3 - 0.2 - - - - - - -
30/04:30pm 18.9 NW 8 11 1009.2 - 0.2 - - - - - - -
30/04:00pm 20.1 NW 9 13 1009.1 - 0.2 - - - - - - -
30/03:30pm 19.7 NNW 9 13 1009.1 - 0.2 - - - - - - -
30/03:00pm 19.5 NNW 10 15 1009.4 - 0.2 - - - - - - -
30/02:30pm 19.6 NNW 9 12 1009.7 - 0.2 - - - - - - -
30/02:00pm 18.6 NNW 11 14 1009.8 - 0.2 - - - - - - -
30/01:30pm 18.6 NNW 11 15 1009.8 - 0.2 - - - - - - -
30/01:00pm 19.0 NNW 12 17 1010.0 - 0.2 - - - - - - -
30/12:30pm 18.6 NNW 13 17 1010.4 - 0.2 - - - - - - -
30/12:00pm 18.3 NW 11 16 1010.5 - 0.0 - - - - - - -
30/11:30am 18.7 NW 10 14 1010.8 - 0.0 - - - - - - -
30/11:00am 18.3 NNW 9 13 1011.1 - 0.0 - - - - - - -
30/10:30am 17.2 NNW 10 13 1011.3 - 0.0 - - - - - - -
30/10:00am 17.0 NNW 9 12 1011.3 - 0.0 - - - - - - -
30/09:30am 16.9 NNW 10 13 1011.5 - 0.0 - - - - - - -
30/09:00am 15.4 N 6 9 1011.5 - 10.0 - - - - - - -
30/08:30am 14.4 N 6 8 1011.6 - 10.0 - - - - - - -
30/08:00am 14.2 N 5 7 1011.4 - 10.0 - - - - - - -
30/07:30am 13.9 NNE 6 9 1010.9 - 10.0 - - - - - - -
30/07:00am 13.9 NNE 6 9 1011.2 - 10.0 - - - - - - -
30/06:30am 13.8 NNE 6 9 1011.3 - 10.0 - - - - - - -
30/06:00am 13.7 NNE 7 10 1011.0 - 10.0 Rain - - - - - -
30/05:30am 13.7 NNE 8 11 1011.0 - 9.2 - - - - - - -
30/05:00am 13.7 NE 7 10 1010.8 - 9.2 - - - - - - -
30/04:30am 13.8 NNE 8 12 1010.9 - 8.8 - - - - - - -
30/04:00am 13.7 NNE 8 12 1011.1 - 7.8 - - - - - - -
30/03:30am 13.7 NNE 7 12 1011.0 - 6.8 - - - - - - -
30/03:00am 13.5 NNE 7 10 1011.2 - 6.8 Rain - - - - - -
30/02:30am 13.6 N 7 11 1011.5 - 5.8 - - - - - - -
30/02:00am 13.9 N 7 11 1011.8 - 4.8 - - - - - - -
30/01:30am 14.2 N 9 16 1012.1 - 4.4 - - - - - - -
30/01:00am 14.1 N 11 17 1012.1 - 4.4 - - - - - - -
30/12:30am 14.4 NNE 10 16 1011.9 - 4.2 - - - - - - -
30/12:00am 15.2 N 16 28 1012.3 - 4.2 - - - - - - -
 
Date/Time
CST
Temp
°C
Wind Pressure Rain since
9am
mm
Weather Cloud Vis
km
Sea
Height
m
Swell
Dir  Spd
kts
Gust
kts
hPa Trend Height
m
Period
s
Dir
29/11:46pm 15.3 N 15 26 1012.0 - 4.2 - - - - - - -
29/11:30pm 14.8 N 12 18 1011.7 - 4.2 - - - - - - -
29/11:00pm 14.8 NNE 11 18 1011.8 - 4.2 - - - - - - -
29/10:30pm 15.0 NNE 13 19 1011.4 - 4.2 - - - - - - -
29/10:00pm 15.0 NNE 13 19 1011.2 - 4.2 - - - - - - -
29/09:30pm 15.1 NNE 13 22 1011.5 - 4.2 - - - - - - -
29/09:00pm 14.6 NE 12 16 1010.7 - 4.2 - - - - - - -
29/08:30pm 14.6 NE 13 19 1011.4 - 4.2 - - - - - - -
29/08:00pm 14.5 NE 16 21 1010.8 - 4.2 - - - - - - -
29/07:30pm 14.6 NE 16 23 1011.0 - 4.2 - - - - - - -
29/07:00pm 14.4 NE 14 19 1011.0 - 4.2 - - - - - - -
29/06:30pm 14.3 NE 12 16 1011.1 - 4.2 - - - - - - -
29/06:00pm 14.4 NE 10 13 1011.2 - 4.2 Recent precip. - - - - - -
29/05:30pm 14.7 NNE 7 12 1011.3 - 3.4 - - - - - - -
29/05:00pm 14.7 NE 7 10 1010.5 - 2.4 - - - - - - -
29/04:30pm 14.5 NE 4 6 1010.4 - 2.2 - - - - - - -
29/04:00pm 15.1 NNE 4 7 1010.3 - 0.2 - - - - - - -
29/03:30pm 15.1 NE 7 10 1009.8 - 0.2 - - - - - - -
29/03:00pm 15.3 NNE 6 9 1010.1 - 0.2 - - - - - - -
29/02:30pm 15.5 NNE 6 10 1010.2 - 0.2 - - - - - - -
29/02:00pm 15.5 NNE 7 12 1010.6 - 0.2 - - - - - - -
29/01:30pm 16.5 NE 13 17 1010.3 - 0.2 - - - - - - -
29/01:00pm 15.5 NE 14 19 1011.1 - 0.2 - - - - - - -
29/12:30pm 14.8 NE 18 23 1011.4 - 0.2 - - - - - - -
29/12:00pm 14.9 NE 17 21 1011.5 - 0.2 - - - - - - -
29/11:30am 14.8 NE 16 20 1011.9 - 0.2 - - - - - - -
29/11:00am 14.6 NE 18 23 1012.2 - 0.2 - - - - - - -
29/10:30am 14.3 NE 16 21 1013.1 - 0.2 - - - - - - -
29/10:00am 13.8 NE 16 21 1013.7 - 0.0 - - - - - - -
29/09:30am 13.8 NE 15 21 1013.7 - 0.0 - - - - - - -
29/09:00am 13.7 NE 12 18 1014.0 - 4.8 Recent precip. - - - - - -
29/08:30am 13.5 NE 15 20 1013.9 - 4.8 - - - - - - -
29/08:00am 13.4 NE 12 16 1014.5 - 4.6 - - - - - - -
29/07:30am 13.2 NE 10 15 1014.5 - 4.6 - - - - - - -
29/07:00am 13.8 NE 12 16 1014.1 - 4.2 - - - - - - -
29/06:30am 13.9 ENE 12 17 1013.8 - 4.2 - - - - - - -
29/06:00am 13.7 NE 12 15 1013.6 - 4.2 Recent precip. - - - - - -
29/05:30am 13.5 NE 14 18 1013.4 - 4.2 - - - - - - -
29/05:00am 13.5 NE 13 18 1013.2 - 4.0 - - - - - - -
29/04:30am 13.2 NE 13 18 1013.1 - 4.0 - - - - - - -
29/04:00am 13.2 NE 10 13 1013.0 - 4.0 - - - - - - -
29/03:30am 12.9 NE 9 13 1013.0 - 4.0 - - - - - - -
29/03:00am 13.2 NNE 9 14 1013.8 - 3.0 Rain - - - - - -
29/02:30am 13.6 NNE 8 12 1014.4 - 1.6 - - - - - - -
29/02:00am 13.2 NNE 7 11 1014.3 - 1.4 - - - - - - -
29/01:30am 13.2 N 9 14 1014.8 - 1.0 - - - - - - -
29/01:00am 13.3 NE 11 15 1014.2 - 1.0 - - - - - - -
29/12:30am 13.5 NNE 8 12 1014.9 - 0.8 - - - - - - -
29/12:00am 13.7 NNE 9 13 1014.5 - 0.2 Rain - - - - - -
 
Date/Time
CST
Temp
°C
Wind Pressure Rain since
9am
mm
Weather Cloud Vis
km
Sea
Height
m
Swell
Dir  Spd
kts
Gust
kts
hPa Trend Height
m
Period
s
Dir
28/11:30pm 14.4 NNE 8 13 1014.0 - 0.0 - - - - - - -
28/11:00pm 14.6 NE 9 13 1013.7 - 0.0 - - - - - - -
28/10:30pm 14.6 NE 8 12 1013.8 - 0.0 - - - - - - -
28/10:00pm 14.7 NE 9 13 1013.7 - 0.0 - - - - - - -
28/09:30pm 14.7 NNE 9 12 1013.7 - 0.0 - - - - - - -
28/09:00pm 15.3 NE 9 13 1013.7 - 0.0 - - - - - - -
28/08:30pm 15.4 NNE 7 11 1013.4 - 0.0 - - - - - - -
28/08:00pm 16.0 NNE 9 14 1013.4 - 0.0 - - - - - - -
28/07:30pm 16.4 NE 15 21 1012.4 - 0.0 - - - - - - -
28/07:00pm 16.1 NE 14 18 1012.4 - 0.0 - - - - - - -
28/06:30pm 16.1 NE 13 19 1012.5 - 0.0 - - - - - - -
28/06:00pm 16.4 NE 15 20 1012.1 - 0.0 - - - - - - -
28/05:30pm 16.1 NE 14 19 1011.6 - 0.0 - - - - - - -
28/05:00pm 15.8 NE 13 17 1011.5 - 0.0 - - - - - - -
28/04:30pm 16.1 NE 12 17 1011.5 - 0.0 - - - - - - -
28/04:00pm 16.2 NE 11 14 1011.9 - 0.0 - - - - - - -
28/03:30pm 17.0 NE 11 17 1012.0 - 0.0 - - - - - - -
28/03:00pm 16.8 NE 13 19 1012.1 - 0.0 - - - - - - -
28/02:30pm 17.0 NE 12 16 1012.4 - 0.0 - - - - - - -
28/02:00pm 17.0 NNE 10 16 1012.7 - 0.0 - - - - - - -
28/01:30pm 17.1 NE 11 16 1013.2 - 0.0 - - - - - - -
28/01:00pm 16.7 NE 11 16 1013.3 - 0.0 - - - - - - -
28/12:30pm 16.8 NE 12 17 1013.8 - 0.0 - - - - - - -
28/12:00pm 16.3 NE 10 16 1014.3 - 0.0 - - - - - - -
28/11:30am 15.8 NE 10 16 1014.9 - 0.0 - - - - - - -
28/11:00am 15.5 NNE 11 16 1015.3 - 0.0 - - - - - - -
28/10:30am 15.2 NE 11 16 1015.5 - 0.0 - - - - - - -
28/10:00am 14.3 NNE 9 14 1015.6 - 0.0 - - - - - - -
28/09:30am 13.9 NNE 8 13 1015.9 - 0.0 - - - - - - -
28/09:00am 14.1 NNE 8 13 1016.1 - 0.0 - - - - - - -
28/08:30am 13.8 NNE 9 12 1016.3 - 0.0 - - - - - - -
28/08:00am 14.1 NNE 9 14 1016.1 - 0.0 - - - - - - -
28/07:30am 13.5 NNE 10 15 1016.0 - 0.0 - - - - - - -
28/07:00am 12.9 NNE 9 14 1015.9 - 0.0 - - - - - - -
28/06:30am 12.8 NNE 9 12 1015.8 - 0.0 - - - - - - -

Other Formats:

Comma delimited format used in spreadsheet applications
http://www.bom.gov.au/fwo/IDS60701/IDS60701.94809.axf

JavaScript Object Notation format (JSON) in row-major order
http://www.bom.gov.au/fwo/IDS60701/IDS60701.94809.json